Time;durP1;ratioP1;P1;durP2;ratioP2;P2;SDS_P1;SDS_P2;PMS_P1;PMS_P2;Temp;Humidity;BMP_temperature;BMP_pressure;BME280_temperature;BME280_humidity;BME280_pressure;Samples;Min_cycle;Max_cycle;Signal;HPM_P1;HPM_P2
2022/03/27 00:02:08;;;;;;;16.30;8.23;;;6.60;96.80;;;7.50;89.09;99366.84;5022214;28;20931;-71
2022/03/27 00:04:38;;;;;;;15.50;7.87;;;6.60;96.50;;;7.48;89.94;99376.56;5021855;28;20582;-71
2022/03/27 00:07:07;;;;;;;16.37;8.20;;;6.50;96.70;;;7.45;89.93;99371.63;5023341;28;20496;-72
2022/03/27 00:09:36;;;;;;;17.73;7.97;;;6.50;96.90;;;7.45;90.01;99376.84;5023309;28;20504;-71
2022/03/27 00:12:07;;;;;;;12.27;7.17;;;6.50;96.70;;;7.43;89.81;99373.53;5016656;28;21090;-71
2022/03/27 00:14:38;;;;;;;20.30;8.10;;;6.50;96.80;;;7.38;90.59;99370.53;5019616;28;20501;-72
2022/03/27 00:17:08;;;;;;;15.07;7.70;;;6.40;97.00;;;7.33;90.76;99374.47;5019508;28;20457;-71
2022/03/27 00:19:39;;;;;;;19.80;8.33;;;6.20;97.10;;;7.34;90.35;99370.91;5021151;28;20967;-72
2022/03/27 00:22:08;;;;;;;22.43;7.90;;;6.40;96.80;;;7.28;90.50;99374.06;5023317;28;20526;-72
2022/03/27 00:24:40;;;;;;;12.53;7.30;;;6.40;96.80;;;7.24;90.92;99370.91;5018939;28;20457;-71
2022/03/27 00:27:11;;;;;;;18.23;8.63;;;6.30;96.80;;;7.23;90.60;99369.25;5021457;28;20491;-70
2022/03/27 00:29:42;;;;;;;14.63;7.53;;;6.40;96.70;;;7.18;91.56;99370.63;5022971;28;20455;-71
2022/03/27 00:32:13;;;;;;;11.33;7.30;;;6.20;97.10;;;7.15;91.01;99366.47;5022771;28;20445;-72
2022/03/27 00:34:42;;;;;;;16.00;7.50;;;6.20;97.00;;;7.11;91.06;99370.31;5021022;28;20514;-70
2022/03/27 00:37:12;;;;;;;17.27;8.20;;;6.20;97.00;;;7.12;91.95;99377.16;5027472;28;20534;-71
2022/03/27 00:39:41;;;;;;;12.50;7.20;;;6.20;97.20;;;7.04;92.13;99369.19;5025881;28;20465;-71
2022/03/27 00:42:11;;;;;;;21.13;7.93;;;6.00;97.40;;;7.03;92.42;99375.34;5026088;28;20881;-71
2022/03/27 00:44:43;;;;;;;19.33;6.93;;;6.10;97.30;;;7.04;92.57;99371.81;5026070;28;20503;-71
2022/03/27 00:47:13;;;;;;;18.97;7.60;;;6.10;97.30;;;7.01;92.19;99375.47;5027228;28;20724;-71
2022/03/27 00:49:42;;;;;;;24.93;7.17;;;6.10;97.30;;;7.00;92.25;99381.66;5023912;28;20530;-72
2022/03/27 00:52:13;;;;;;;18.57;7.93;;;6.00;97.40;;;6.99;93.22;99376.56;5024074;28;20497;-71
2022/03/27 00:54:42;;;;;;;17.07;7.47;;;6.00;97.70;;;6.99;93.11;99381.75;5026763;28;21043;-72
2022/03/27 00:57:12;;;;;;;20.77;7.13;;;6.00;97.40;;;6.97;92.60;99375.88;5022964;28;20458;-71
2022/03/27 00:59:44;;;;;;;12.20;6.70;;;6.00;97.50;;;6.93;92.64;99377.09;5023163;28;20513;-71
2022/03/27 01:02:14;;;;;;;19.30;6.83;;;5.90;97.20;;;6.90;92.86;99378.19;5022994;28;20475;-71
2022/03/27 01:04:47;;;;;;;12.03;7.53;;;5.90;97.30;;;6.84;93.02;99383.88;5020576;28;21026;-71
2022/03/27 01:07:19;;;;;;;16.47;7.00;;;5.80;97.70;;;6.81;93.38;99367.72;5024963;28;20481;-71
2022/03/27 01:09:50;;;;;;;20.37;7.73;;;5.80;97.60;;;6.77;93.56;99367.16;5025916;28;20439;-71
2022/03/27 01:12:32;;;;;;;14.43;6.67;;;5.80;97.60;;;6.69;94.09;99361.81;5026927;28;20463;-71
2022/03/27 01:15:04;;;;;;;13.33;7.13;;;5.80;97.60;;;6.62;94.31;99368.47;5022321;28;20486;-71
2022/03/27 01:17:36;;;;;;;11.00;6.87;;;5.80;97.30;;;6.55;94.86;99360.38;5021498;28;20473;-71
2022/03/27 01:20:08;;;;;;;18.70;6.47;;;5.70;97.60;;;6.56;95.31;99362.00;5022530;28;20471;-71
2022/03/27 01:22:37;;;;;;;13.37;7.17;;;5.60;97.80;;;6.56;95.62;99362.00;5020365;28;20481;-71
2022/03/27 01:25:10;;;;;;;11.63;6.87;;;5.60;97.80;;;6.56;95.86;99354.22;5023296;28;20552;-71
2022/03/27 01:27:41;;;;;;;22.13;7.50;;;5.50;98.20;;;6.51;95.71;99361.59;5021254;28;20478;-71
2022/03/27 01:30:14;;;;;;;13.53;7.27;;;5.60;97.80;;;6.44;95.59;99354.44;5022257;28;20509;-71
2022/03/27 01:32:44;;;;;;;13.53;7.17;;;5.50;98.20;;;6.42;96.29;99356.34;5021558;28;20467;-71
2022/03/27 01:35:15;;;;;;;18.63;6.20;;;5.50;98.10;;;6.35;96.56;99350.00;5024115;28;20904;-71
2022/03/27 01:37:46;;;;;;;14.07;6.63;;;5.40;98.30;;;6.33;97.21;99351.91;5023539;28;20442;-71
2022/03/27 01:40:17;;;;;;;12.10;7.50;;;5.40;98.20;;;6.31;97.71;99351.22;5021885;28;20463;-70
2022/03/27 01:42:48;;;;;;;12.20;6.03;;;5.40;98.20;;;6.23;97.57;99351.03;5021992;28;20494;-70
2022/03/27 01:45:19;;;;;;;16.93;7.00;;;5.30;98.50;;;6.19;98.60;99350.44;5022415;28;20462;-70
2022/03/27 01:47:48;;;;;;;14.60;6.33;;;5.30;98.30;;;6.17;99.57;99344.56;5019813;28;20619;-71
2022/03/27 01:50:19;;;;;;;12.77;6.63;;;5.30;98.60;;;6.18;99.69;99353.97;5020818;28;20545;-71
2022/03/27 01:52:50;;;;;;;14.77;6.70;;;5.30;98.50;;;6.11;99.43;99347.66;5026321;28;20451;-71
2022/03/27 01:55:18;;;;;;;12.73;7.33;;;5.20;98.60;;;6.15;99.09;99343.84;5019244;28;20525;-71
2022/03/27 01:57:48;;;;;;;12.13;6.97;;;5.20;98.50;;;6.15;99.39;99343.03;5018977;28;20477;-71
2022/03/27 02:00:17;;;;;;;14.23;7.20;;;5.20;98.60;;;6.15;99.14;99340.44;5021491;28;20455;-70
2022/03/27 02:02:47;;;;;;;15.73;6.87;;;5.20;98.60;;;6.16;99.37;99342.91;5022113;28;20505;-71
2022/03/27 02:05:19;;;;;;;14.27;7.30;;;5.20;99.00;;;6.17;99.35;99344.56;5020634;28;20617;-71
2022/03/27 02:07:52;;;;;;;16.33;7.30;;;5.20;98.60;;;6.15;99.09;99343.03;5023539;28;20512;-71
2022/03/27 02:10:22;;;;;;;21.70;7.37;;;5.10;98.70;;;6.10;99.36;99346.03;5023237;28;20485;-71
2022/03/27 02:12:53;;;;;;;12.73;7.23;;;5.10;98.70;;;6.04;100.00;99338.72;5023050;28;20908;-71
2022/03/27 02:15:24;;;;;;;13.90;7.43;;;5.00;98.90;;;6.05;99.93;99346.41;5023677;28;20486;-71
2022/03/27 02:17:57;;;;;;;13.43;6.67;;;5.10;98.90;;;6.01;100.00;99346.75;5025525;28;20839;-71
2022/03/27 02:20:27;;;;;;;21.40;7.90;;;5.10;98.70;;;5.97;99.83;99341.00;5022833;28;20520;-71
2022/03/27 02:22:57;;;;;;;9.07;5.70;;;5.10;98.70;;;5.97;100.00;99345.41;5024528;28;20875;-71
2022/03/27 02:25:26;;;;;;;11.80;7.03;;;5.00;98.80;;;5.99;100.00;99340.88;5022831;28;20985;-71
2022/03/27 02:27:57;;;;;;;17.33;7.20;;;5.00;98.80;;;5.95;100.00;99342.91;5017412;28;20845;-71
2022/03/27 02:30:27;;;;;;;14.47;7.50;;;4.90;99.10;;;5.90;100.00;99339.06;5019643;28;21023;-71
2022/03/27 02:32:57;;;;;;;12.07;6.40;;;4.90;99.30;;;5.90;100.00;99339.06;5020051;28;20559;-71
2022/03/27 02:35:28;;;;;;;22.43;7.20;;;4.90;99.10;;;5.88;100.00;99338.34;5018503;28;21030;-70
2022/03/27 02:37:58;;;;;;;10.07;6.73;;;4.80;99.40;;;5.89;100.00;99342.59;5020469;28;20886;-71
2022/03/27 02:40:28;;;;;;;15.97;6.10;;;4.90;99.20;;;5.87;100.00;99339.28;5019453;28;21047;-71
2022/03/27 02:42:59;;;;;;;13.80;7.10;;;4.90;99.40;;;5.87;100.00;99339.28;5022032;28;20905;-71
2022/03/27 02:45:29;;;;;;;22.63;6.93;;;4.90;99.20;;;5.85;100.00;99336.81;5023040;28;20442;-71
2022/03/27 02:48:00;;;;;;;15.13;7.40;;;4.80;99.20;;;5.83;100.00;99341.28;5024041;28;20657;-71
2022/03/27 02:50:31;;;;;;;12.10;7.73;;;4.70;99.40;;;5.78;100.00;99340.00;5022564;28;20995;-71
2022/03/27 02:53:01;;;;;;;10.43;7.17;;;4.80;99.40;;;5.72;100.00;99340.53;5022137;28;20479;-71
2022/03/27 02:55:31;;;;;;;20.10;8.80;;;4.90;99.00;;;5.66;100.00;99341.03;5024638;28;20528;-71
2022/03/27 02:58:02;;;;;;;13.30;6.00;;;4.80;99.30;;;5.65;100.00;99342.78;5021824;28;20468;-71
2022/03/27 03:00:34;;;;;;;14.03;7.20;;;4.70;99.30;;;5.63;100.00;99341.25;5022688;28;20466;-71
2022/03/27 03:03:04;;;;;;;13.23;7.10;;;4.70;99.30;;;5.61;100.00;99332.78;5024336;28;20453;-71
2022/03/27 03:05:37;;;;;;;15.20;6.70;;;4.70;99.40;;;5.55;100.00;99329.72;5023763;28;20485;-71
2022/03/27 03:08:11;;;;;;;12.00;6.73;;;4.70;99.50;;;5.52;100.00;99329.97;5021111;28;20448;-71
2022/03/27 03:10:42;;;;;;;13.30;7.30;;;4.60;99.30;;;5.51;100.00;99332.69;5020653;28;20794;-71
2022/03/27 03:13:12;;;;;;;15.23;6.60;;;4.60;99.40;;;5.46;100.00;99338.25;5019353;28;20469;-70
2022/03/27 03:15:43;;;;;;;14.70;7.80;;;4.60;99.10;;;5.46;100.00;99327.88;5020498;28;20516;-71
2022/03/27 03:18:14;;;;;;;10.87;6.43;;;4.50;99.40;;;5.45;100.00;99336.59;5022187;28;21458;-71
2022/03/27 03:20:46;;;;;;;16.83;7.60;;;4.50;99.70;;;5.40;100.00;99333.56;5023342;28;20460;-70
2022/03/27 03:23:15;;;;;;;14.53;7.30;;;4.50;99.70;;;5.38;100.00;99329.44;5024571;28;20541;-71
2022/03/27 03:25:45;;;;;;;10.80;6.53;;;4.40;99.90;;;5.37;100.00;99333.81;5023838;28;20681;-71
2022/03/27 03:28:35;;;;;;;14.90;7.33;;;4.40;99.90;;;5.36;100.00;99332.16;5019320;28;20970;-71
2022/03/27 03:31:05;;;;;;;16.53;7.30;;;4.40;99.90;;;5.33;100.00;99335.00;5021339;28;20458;-70
2022/03/27 03:33:35;;;;;;;13.13;6.63;;;4.40;99.80;;;5.26;100.00;99345.97;5018948;28;21046;-71
2022/03/27 03:36:08;;;;;;;16.30;6.90;;;4.40;99.90;;;5.22;100.00;99340.19;5016900;28;20505;-70
2022/03/27 03:38:38;;;;;;;14.83;6.33;;;4.30;99.90;;;5.26;100.00;99341.59;5020676;28;20485;-71
2022/03/27 03:41:08;;;;;;;12.90;6.60;;;4.30;99.90;;;5.22;100.00;99336.78;5018470;28;20915;-71
2022/03/27 03:43:37;;;;;;;15.63;7.30;;;4.30;99.90;;;5.22;100.00;99337.59;5017386;28;20546;-71
2022/03/27 03:46:08;;;;;;;14.30;7.93;;;4.30;99.90;;;5.21;100.00;99335.94;5019678;28;20462;-71
2022/03/27 03:48:39;;;;;;;12.67;6.77;;;4.30;99.90;;;5.18;100.00;99340.53;5020190;28;20467;-71
2022/03/27 03:51:10;;;;;;;11.20;6.50;;;4.20;99.90;;;5.17;100.00;99338.94;5018264;28;20556;-71
2022/03/27 03:53:40;;;;;;;16.77;6.43;;;4.20;99.90;;;5.20;100.00;99334.31;5020441;28;20511;-70
2022/03/27 03:56:10;;;;;;;11.20;6.67;;;4.20;99.90;;;5.18;100.00;99331.00;5018568;28;20500;-70
2022/03/27 03:58:40;;;;;;;10.10;5.80;;;4.30;99.90;;;5.09;100.00;99334.34;5020175;28;20531;-71
2022/03/27 04:01:10;;;;;;;13.63;6.63;;;4.20;99.90;;;5.07;100.00;99331.03;5019364;28;20483;-71
2022/03/27 04:03:41;;;;;;;12.00;7.43;;;4.20;99.90;;;5.11;100.00;99329.00;5020199;28;20894;-71
2022/03/27 04:06:11;;;;;;;17.83;7.23;;;4.20;99.90;;;5.09;100.00;99331.75;5018892;28;20550;-71
2022/03/27 04:08:41;;;;;;;9.83;6.37;;;4.10;99.90;;;5.07;100.00;99333.63;5021247;28;21081;-71
2022/03/27 04:11:21;;;;;;;14.33;7.57;;;4.00;99.90;;;5.05;100.00;99336.34;5023960;28;20468;-71
2022/03/27 04:13:52;;;;;;;12.83;7.00;;;4.10;99.90;;;5.02;100.00;99335.75;5022722;28;20534;-71
2022/03/27 04:16:21;;;;;;;14.93;7.17;;;3.90;99.90;;;5.01;100.00;99332.34;5024249;28;20555;-71
2022/03/27 04:18:49;;;;;;;11.70;6.30;;;3.90;99.90;;;5.03;100.00;99334.81;5024830;28;20557;-71
2022/03/27 04:21:21;;;;;;;11.83;6.77;;;4.00;99.90;;;5.00;100.00;99330.69;5026517;28;20464;-71
2022/03/27 04:23:50;;;;;;;11.93;6.63;;;4.00;99.90;;;4.96;100.00;99331.84;5024874;28;20493;-71
2022/03/27 04:26:20;;;;;;;13.27;7.30;;;4.00;99.90;;;4.97;100.00;99338.69;5025590;28;20521;-71
2022/03/27 04:28:51;;;;;;;13.87;7.07;;;4.00;99.90;;;4.94;100.00;99332.94;5026318;28;20462;-71
2022/03/27 04:31:20;;;;;;;13.40;7.47;;;3.80;99.90;;;4.97;100.00;99332.69;5024888;28;20862;-71
2022/03/27 04:33:57;;;;;;;16.80;7.27;;;3.90;99.90;;;4.95;100.00;99326.81;5026485;28;20475;-71
2022/03/27 04:36:28;;;;;;;29.23;5.90;;;3.90;99.90;;;4.94;100.00;99338.13;5026670;28;20517;-71
2022/03/27 04:38:58;;;;;;;14.83;6.97;;;3.90;99.90;;;4.89;100.00;99337.66;5026293;28;20514;-71
2022/03/27 04:41:29;;;;;;;13.97;6.73;;;3.90;99.90;;;4.88;100.00;99333.41;5022679;28;20539;-71
2022/03/27 04:43:58;;;;;;;12.17;7.07;;;3.90;99.90;;;4.86;100.00;99340.50;5023434;28;21041;-71
2022/03/27 04:46:27;;;;;;;17.00;7.20;;;3.90;99.90;;;4.83;100.00;99333.75;5023094;28;20512;-71
2022/03/27 04:49:01;;;;;;;12.17;7.33;;;3.90;99.90;;;4.78;100.00;99332.47;5026197;28;20460;-71
2022/03/27 04:51:32;;;;;;;13.77;6.77;;;3.90;99.90;;;4.74;100.00;99331.06;5023269;28;20460;-71
2022/03/27 04:54:02;;;;;;;21.23;7.70;;;3.80;99.90;;;4.77;100.00;99336.00;5025732;28;20492;-71
2022/03/27 04:56:32;;;;;;;13.90;7.10;;;3.80;99.90;;;4.79;100.00;99339.31;5024345;28;20546;-71
2022/03/27 04:59:01;;;;;;;12.80;6.80;;;3.80;99.90;;;4.74;100.00;99342.25;5021306;28;20479;-71
2022/03/27 05:01:31;;;;;;;19.07;7.67;;;3.80;99.90;;;4.73;100.00;99347.53;5021964;28;20472;-71
2022/03/27 05:04:03;;;;;;;17.90;7.47;;;3.80;99.90;;;4.67;100.00;99350.63;5022781;28;20462;-71
2022/03/27 05:06:35;;;;;;;10.93;6.70;;;3.90;99.90;;;4.69;100.00;99353.91;5021846;28;20496;-71
2022/03/27 05:09:06;;;;;;;15.60;7.17;;;3.80;99.90;;;4.66;100.00;99354.13;5021504;28;20466;-71
2022/03/27 05:11:36;;;;;;;12.93;6.90;;;3.70;99.90;;;4.63;100.00;99352.63;5023106;28;20531;-70
2022/03/27 05:14:05;;;;;;;11.40;6.90;;;3.80;99.90;;;4.60;100.00;99350.25;5022318;28;20523;-71
2022/03/27 05:16:35;;;;;;;15.93;7.40;;;3.80;99.90;;;4.58;100.00;99352.97;5020814;28;20547;-71
2022/03/27 05:19:05;;;;;;;12.57;7.13;;;3.70;99.90;;;4.56;100.00;99343.66;5023238;28;20461;-71
2022/03/27 05:21:36;;;;;;;12.20;7.27;;;3.70;99.90;;;4.51;100.00;99346.59;5022284;28;20469;-71
2022/03/27 05:24:08;;;;;;;11.07;7.00;;;3.70;99.90;;;4.51;100.00;99343.22;5026996;28;20538;-71
2022/03/27 05:26:39;;;;;;;13.77;6.70;;;3.60;99.90;;;4.51;100.00;99341.41;5022359;28;20505;-71
2022/03/27 05:29:10;;;;;;;12.57;7.27;;;3.60;99.90;;;4.54;100.00;99345.56;5023061;28;20887;-71
2022/03/27 05:31:40;;;;;;;17.53;7.97;;;3.50;99.90;;;4.53;100.00;99346.50;5022061;28;20468;-71
2022/03/27 05:34:10;;;;;;;13.27;7.47;;;3.50;99.90;;;4.52;100.00;99347.41;5020554;28;20527;-71
2022/03/27 05:36:41;;;;;;;17.57;7.10;;;3.50;99.90;;;4.50;100.00;99352.72;5021109;28;20550;-71
2022/03/27 05:39:11;;;;;;;10.20;6.57;;;3.70;99.90;;;4.48;100.00;99352.00;5022508;28;20499;-71
2022/03/27 05:41:41;;;;;;;17.50;6.60;;;3.60;99.90;;;4.51;100.00;99345.78;5023063;28;20488;-71
2022/03/27 05:44:10;;;;;;;11.17;7.07;;;3.50;99.90;;;4.53;100.00;99355.09;5022386;28;20938;-71
2022/03/27 05:46:40;;;;;;;11.83;6.67;;;3.60;99.90;;;4.53;100.00;99354.25;5021797;28;20467;-71
2022/03/27 05:49:09;;;;;;;13.73;7.27;;;3.50;99.90;;;4.54;100.00;99355.91;5021722;28;20546;-71
2022/03/27 05:51:41;;;;;;;12.50;6.87;;;3.50;99.90;;;4.57;100.00;99356.50;5019725;28;20612;-70
2022/03/27 05:54:11;;;;;;;17.07;6.97;;;3.60;99.90;;;4.58;100.00;99350.38;5021616;28;20967;-71
2022/03/27 05:56:40;;;;;;;9.70;5.60;;;3.60;99.90;;;4.56;100.00;99357.44;5020997;28;20949;-70
2022/03/27 05:59:11;;;;;;;16.40;7.30;;;3.70;99.90;;;4.55;100.00;99355.78;5021310;28;20472;-71
2022/03/27 06:01:41;;;;;;;16.90;8.40;;;3.60;99.90;;;4.58;100.00;99358.13;5020178;28;20500;-70
2022/03/27 06:04:10;;;;;;;12.90;8.13;;;3.60;99.90;;;4.58;100.00;99360.72;5020410;28;20476;-71
2022/03/27 06:06:42;;;;;;;12.80;7.60;;;3.60;99.90;;;4.61;100.00;99361.44;5022478;28;20503;-71
2022/03/27 06:09:12;;;;;;;23.03;7.27;;;3.70;99.90;;;4.59;100.00;99371.91;5020547;28;20456;-70
2022/03/27 06:11:41;;;;;;;19.90;6.90;;;3.60;99.90;;;4.60;100.00;99375.34;5020491;28;20488;-71
2022/03/27 06:14:10;;;;;;;16.10;7.40;;;3.50;99.90;;;4.62;100.00;99368.28;5021799;28;20552;-71
2022/03/27 06:16:39;;;;;;;16.93;8.57;;;3.70;99.90;;;4.66;100.00;99365.34;5021424;28;20500;-71
2022/03/27 06:19:09;;;;;;;16.00;7.80;;;3.60;99.90;;;4.69;100.00;99361.66;5024013;28;20473;-71
2022/03/27 06:21:39;;;;;;;15.20;7.00;;;3.70;99.90;;;4.73;100.00;99373.44;5024893;28;20464;-70
2022/03/27 06:24:10;;;;;;;15.97;6.77;;;3.80;99.90;;;4.73;100.00;99376.03;5024995;28;20465;-71
2022/03/27 06:26:40;;;;;;;12.87;7.80;;;3.80;99.90;;;4.73;100.00;99376.03;5022913;28;20553;-71
2022/03/27 06:29:10;;;;;;;10.57;7.73;;;3.90;99.90;;;4.75;100.00;99374.19;5021778;28;21302;-71
2022/03/27 06:31:40;;;;;;;11.73;7.13;;;3.80;99.90;;;4.75;100.00;99380.19;5024242;28;20451;-71
2022/03/27 06:34:10;;;;;;;17.13;8.37;;;3.80;99.90;;;4.79;100.00;99380.78;5019692;28;20497;-71
2022/03/27 06:36:41;;;;;;;15.97;8.07;;;3.90;99.90;;;4.81;100.00;99384.91;5021538;28;20982;-71
2022/03/27 06:39:13;;;;;;;14.73;7.77;;;3.90;99.90;;;4.85;100.00;99385.47;5023208;28;20473;-71
2022/03/27 06:41:43;;;;;;;11.70;7.77;;;3.90;99.90;;;4.84;100.00;99383.81;5020720;28;20489;-71
2022/03/27 06:44:17;;;;;;;12.70;6.80;;;3.90;99.90;;;4.87;100.00;99375.81;5023747;28;20457;-71
2022/03/27 06:46:47;;;;;;;16.10;8.37;;;4.00;99.90;;;4.89;100.00;99376.53;5024173;28;20472;-71
2022/03/27 06:49:16;;;;;;;14.00;8.10;;;4.00;99.90;;;4.94;100.00;99377.00;5022512;28;21031;-71
2022/03/27 06:51:45;;;;;;;12.50;8.03;;;4.00;99.90;;;4.95;100.00;99382.06;5019585;28;20560;-71
2022/03/27 06:54:20;;;;;;;14.70;7.70;;;4.00;99.90;;;5.01;100.00;99383.34;5021361;28;21018;-71
2022/03/27 06:56:51;;;;;;;16.80;8.87;;;4.10;99.90;;;5.05;100.00;99382.16;5020326;28;20492;-71
2022/03/27 06:59:21;;;;;;;16.50;9.33;;;4.20;99.90;;;5.08;100.00;99377.56;5019875;28;20873;-71
2022/03/27 07:04:37;;;;;;;18.00;9.80;;;4.10;99.90;;;5.16;100.00;99378.75;5020133;28;21056;-70
2022/03/27 07:07:07;;;;;;;14.00;8.80;;;4.20;99.90;;;5.20;100.00;99381.00;5016749;28;20561;-71
2022/03/27 07:09:39;;;;;;;18.60;9.50;;;4.20;99.90;;;5.22;100.00;99379.09;5016854;28;20500;-71
2022/03/27 07:12:12;;;;;;;19.67;10.07;;;4.20;99.90;;;5.29;100.00;99376.84;5013945;28;20459;-71
2022/03/27 07:14:47;;;;;;;23.43;9.00;;;4.30;99.90;;;5.34;100.00;99378.13;5016178;28;20540;-71
2022/03/27 07:17:45;;;;;;;15.07;9.37;;;4.40;99.90;;;5.40;100.00;99376.81;5017678;28;20486;-70
2022/03/27 07:20:20;;;;;;;21.07;10.73;;;4.50;99.90;;;5.46;100.00;99373.72;5018350;28;20470;-71
2022/03/27 07:22:49;;;;;;;17.73;9.10;;;4.60;99.90;;;5.51;100.00;99362.06;5017816;28;20462;-71
2022/03/27 07:25:22;;;;;;;14.40;10.77;;;4.60;99.90;;;5.59;100.00;99370.03;5019904;28;20464;-70
2022/03/27 07:27:52;;;;;;;14.57;9.40;;;4.60;99.90;;;5.66;100.00;99372.16;5016846;28;20498;-71
2022/03/27 07:30:22;;;;;;;19.20;10.87;;;4.70;99.90;;;5.71;100.00;99381.22;5018376;28;20881;-72
2022/03/27 07:32:53;;;;;;;17.20;9.83;;;4.80;99.90;;;5.78;100.00;99368.56;5018857;28;21035;-71
2022/03/27 07:35:22;;;;;;;17.40;9.53;;;4.90;99.90;;;5.85;100.00;99369.72;5016698;28;20924;-71
2022/03/27 07:37:52;;;;;;;20.57;9.70;;;5.00;99.90;;;5.92;100.00;99373.50;5016561;28;20493;-71
2022/03/27 07:40:24;;;;;;;16.23;10.97;;;5.00;99.90;;;5.99;100.00;99374.63;5019233;28;20481;-71
2022/03/27 07:42:54;;;;;;;13.60;8.43;;;5.10;99.90;;;6.06;100.00;99378.38;5020555;28;20463;-71
2022/03/27 07:45:26;;;;;;;33.77;17.10;;;5.20;99.90;;;6.12;100.00;99380.47;5022776;28;20558;-71
2022/03/27 07:47:57;;;;;;;18.50;9.40;;;5.20;99.90;;;6.20;100.00;99375.47;5024339;28;20477;-71
2022/03/27 07:50:28;;;;;;;14.23;8.50;;;5.30;99.90;;;6.28;100.00;99380.03;5022991;28;20996;-71
2022/03/27 07:52:59;;;;;;;11.53;7.67;;;5.40;99.90;;;6.35;100.00;99371.59;5021735;28;20520;-71
2022/03/27 07:55:30;;;;;;;16.90;8.97;;;5.50;99.90;;;6.43;100.00;99369.19;5023059;28;20466;-71
2022/03/27 07:58:02;;;;;;;16.33;7.60;;;5.60;99.90;;;6.52;100.00;99363.25;5024988;28;21069;-71
2022/03/27 08:00:32;;;;;;;18.20;10.63;;;5.60;99.90;;;6.61;100.00;99376.41;5021861;28;20460;-70
2022/03/27 08:03:02;;;;;;;14.20;8.60;;;5.70;99.90;;;6.70;100.00;99373.03;5024125;28;20961;-71
2022/03/27 08:05:32;;;;;;;12.50;8.23;;;5.80;99.90;;;6.77;100.00;99369.75;5022912;28;20953;-71
2022/03/27 08:08:01;;;;;;;13.70;8.60;;;5.90;99.90;;;6.85;100.00;99369.13;5020785;28;20892;-71
2022/03/27 08:10:33;;;;;;;14.80;9.10;;;6.00;99.90;;;6.96;100.00;99366.44;5021513;28;20518;-70
2022/03/27 08:13:03;;;;;;;17.20;8.50;;;6.10;99.90;;;7.03;100.00;99357.16;5020683;28;20621;-71
2022/03/27 08:15:31;;;;;;;15.37;8.73;;;6.20;99.90;;;7.12;100.00;99361.53;5019609;28;20505;-71
2022/03/27 08:18:01;;;;;;;16.03;8.40;;;6.30;99.90;;;7.21;100.00;99358.16;5020893;28;20496;-71
2022/03/27 08:20:32;;;;;;;97.40;50.37;;;6.40;99.90;;;7.31;100.00;99360.78;5020954;28;21013;-71
2022/03/27 08:23:01;;;;;;;39.10;20.77;;;6.60;99.90;;;7.41;100.00;99359.84;5020956;28;20465;-71
2022/03/27 08:28:20;;;;;;;23.33;10.20;;;6.80;99.90;;;7.58;100.00;99358.34;5020170;28;20828;-71
2022/03/27 08:30:51;;;;;;;16.47;9.83;;;6.90;99.90;;;7.68;100.00;99367.00;5021913;28;20477;-71
2022/03/27 08:33:21;;;;;;;19.33;8.80;;;7.00;99.90;;;7.79;100.00;99368.66;5016040;28;20547;-71
2022/03/27 08:35:51;;;;;;;15.20;8.50;;;7.10;99.90;;;7.87;100.00;99358.38;5018449;28;20575;-71
2022/03/27 08:38:22;;;;;;;131.60;60.67;;;7.20;99.90;;;7.99;100.00;99359.88;5023557;28;20489;-71
2022/03/27 08:41:00;;;;;;;37.97;19.20;;;7.30;99.90;;;8.10;100.00;99357.94;5020056;28;21350;-71
2022/03/27 08:43:33;;;;;;;18.80;9.97;;;7.50;99.90;;;8.27;100.00;99359.00;5021422;28;20524;-71
2022/03/27 08:46:05;;;;;;;21.97;9.33;;;7.70;99.90;;;8.39;100.00;99365.75;5021038;28;20553;-71
2022/03/27 08:48:39;;;;;;;17.87;9.93;;;7.80;99.90;;;8.53;100.00;99357.50;5021431;28;20467;-72
2022/03/27 08:51:27;;;;;;;17.90;10.10;;;8.00;99.90;;;8.79;100.00;99357.66;5024331;28;20472;-71
2022/03/27 08:54:05;;;;;;;16.50;9.07;;;8.20;99.90;;;9.10;100.00;99355.59;5016953;28;20516;-71
2022/03/27 08:56:37;;;;;;;17.13;9.00;;;8.60;99.90;;;9.29;100.00;99355.50;5021219;28;20465;-71
2022/03/27 08:59:11;;;;;;;15.30;9.80;;;8.80;99.90;;;9.50;100.00;99353.44;5020469;28;20486;-71
2022/03/27 09:01:41;;;;;;;17.10;9.87;;;8.90;99.90;;;9.64;100.00;99359.13;5022334;28;20468;-71
2022/03/27 09:04:13;;;;;;;14.97;9.40;;;9.00;99.90;;;9.74;100.00;99358.09;5011559;28;20481;-71
2022/03/27 09:06:43;;;;;;;19.13;10.17;;;9.20;99.90;;;9.84;100.00;99350.16;5017610;28;20802;-71
2022/03/27 09:09:13;;;;;;;17.87;9.87;;;9.20;99.90;;;10.01;100.00;99358.00;5013982;28;20474;-72
2022/03/27 09:11:46;;;;;;;73.50;33.17;;;9.50;99.90;;;10.13;100.00;99353.38;5017616;28;20466;-72
2022/03/27 09:14:18;;;;;;;15.70;9.67;;;9.60;99.90;;;10.28;100.00;99357.09;5016626;28;20880;-71
2022/03/27 09:17:05;;;;;;;18.97;8.93;;;9.70;99.90;;;10.44;100.00;99349.38;5018065;28;20494;-71
2022/03/27 09:19:39;;;;;;;21.97;9.00;;;9.80;99.90;;;10.58;100.00;99348.81;5023738;28;20543;-72
2022/03/27 09:22:18;;;;;;;17.97;9.43;;;10.00;99.90;;;10.71;100.00;99348.38;5019437;28;20543;-71
2022/03/27 09:24:57;;;;;;;19.83;8.80;;;10.10;99.90;;;10.80;100.00;99354.44;5024246;28;20540;-72
2022/03/27 09:27:35;;;;;;;14.47;9.00;;;10.20;99.90;;;10.89;100.00;99348.31;5017227;28;20495;-71
2022/03/27 09:30:09;;;;;;;14.67;8.00;;;10.30;99.90;;;10.99;100.00;99349.00;5017972;28;20569;-71
2022/03/27 09:32:45;;;;;;;17.63;9.27;;;10.30;99.90;;;11.09;100.00;99347.06;5018495;28;20462;-71
2022/03/27 09:35:18;;;;;;;16.00;9.37;;;10.40;99.90;;;11.21;100.00;99337.13;5023167;28;20469;-72
2022/03/27 09:37:50;;;;;;;15.63;8.93;;;10.50;99.90;;;11.28;100.00;99335.53;5023489;28;20462;-72
2022/03/27 09:40:19;;;;;;;17.97;9.90;;;10.70;99.90;;;11.34;100.00;99335.69;5019729;28;20504;-71
2022/03/27 09:43:12;;;;;;;14.90;8.67;;;10.90;99.90;;;11.45;100.00;99326.72;5023223;28;20469;-72
2022/03/27 09:45:58;;;;;;;23.47;9.83;;;11.00;99.90;;;11.55;100.00;99332.63;5019639;28;20560;-71
2022/03/27 09:48:35;;;;;;;18.23;8.10;;;11.00;99.90;;;11.65;100.00;99324.63;5019429;28;20616;-71
2022/03/27 09:51:08;;;;;;;14.13;8.17;;;11.20;99.90;;;11.73;100.00;99325.47;5019884;28;20466;-72
2022/03/27 09:53:39;;;;;;;14.03;8.00;;;11.30;99.90;;;11.83;100.00;99317.47;5019404;28;20466;-71
2022/03/27 09:56:20;;;;;;;16.30;8.20;;;11.30;99.90;;;11.94;100.00;99319.75;5018561;28;20458;-72
2022/03/27 09:58:53;;;;;;;13.20;7.67;;;11.50;99.70;;;12.06;98.46;99323.69;5019384;28;20533;-72
2022/03/27 10:01:26;;;;;;;13.97;8.37;;;11.60;99.30;;;12.16;97.37;99324.31;5019719;28;20459;-72
2022/03/27 10:04:02;;;;;;;13.10;7.87;;;11.80;99.20;;;12.26;97.30;99319.72;5032853;28;20461;-71
2022/03/27 10:06:37;;;;;;;17.77;8.40;;;11.80;99.30;;;12.31;94.84;99322.69;5018847;28;20519;-72
2022/03/27 10:09:09;;;;;;;13.43;7.80;;;11.80;98.60;;;12.36;93.99;99322.16;5015914;28;20745;-72
2022/03/27 10:11:41;;;;;;;15.03;7.73;;;11.80;98.50;;;12.41;92.03;99315.44;5019167;28;20881;-72
2022/03/27 10:14:12;;;;;;;17.20;7.93;;;11.90;97.80;;;12.48;92.43;99312.97;5021338;28;20470;-71
2022/03/27 10:16:46;;;;;;;15.57;7.50;;;12.00;98.20;;;12.52;92.84;99309.84;5018016;28;20466;-72
2022/03/27 10:19:35;;;;;;;11.33;7.77;;;12.00;98.50;;;12.57;92.31;99315.41;5020854;28;20469;-72
2022/03/27 10:22:07;;;;;;;16.73;8.47;;;12.00;98.20;;;12.61;91.68;99308.81;5019850;28;20475;-72
2022/03/27 10:24:37;;;;;;;15.57;7.63;;;12.10;98.10;;;12.68;90.17;99302.91;5022075;28;20545;-72
2022/03/27 10:27:09;;;;;;;14.33;8.43;;;12.20;97.80;;;12.79;88.26;99307.78;5020490;28;20474;-74
2022/03/27 10:29:41;;;;;;;12.63;8.83;;;12.40;97.30;;;12.87;86.88;99298.09;5017795;28;20841;-71
2022/03/27 10:32:12;;;;;;;14.57;8.03;;;12.50;97.10;;;12.93;86.55;99296.56;5019911;28;20481;-71
2022/03/27 10:34:55;;;;;;;14.43;6.63;;;12.40;96.90;;;12.97;84.84;99288.19;5020037;28;20926;-71
2022/03/27 10:37:37;;;;;;;12.60;7.43;;;12.50;96.50;;;13.02;83.62;99287.66;5017323;28;20485;-71
2022/03/27 10:40:19;;;;;;;13.00;7.53;;;12.60;96.20;;;13.08;83.30;99284.38;5019813;28;21205;-71
2022/03/27 10:43:02;;;;;;;11.80;7.23;;;12.60;96.20;;;13.17;82.16;99282.53;5020435;28;20956;-72